Time;durP1;ratioP1;P1;durP2;ratioP2;P2;SDS_P1;SDS_P2;PMS_P1;PMS_P2;Temp;Humidity;BMP_temperature;BMP_pressure;BME280_temperature;BME280_humidity;BME280_pressure;Samples;Min_cycle;Max_cycle;Signal;HPM_P1;HPM_P2
2021/08/07 00:00:48;;;;;;;2.25;1.23;;;18.30;87.40;;;;;;5015020;28;20366;-80
2021/08/07 00:03:14;;;;;;;1.92;1.20;;;18.30;87.80;;;;;;5031610;28;20026;-82
2021/08/07 00:05:40;;;;;;;3.63;1.20;;;18.30;88.10;;;;;;5014858;28;20414;-80
2021/08/07 00:08:06;;;;;;;2.67;1.10;;;18.20;88.00;;;;;;5015146;28;20018;-80
2021/08/07 00:10:31;;;;;;;2.17;0.55;;;18.20;88.20;;;;;;5016213;28;20481;-84
2021/08/07 00:12:57;;;;;;;2.38;0.60;;;18.20;88.20;;;;;;5016728;28;20459;-82
2021/08/07 00:15:23;;;;;;;2.25;0.57;;;18.10;88.20;;;;;;5015414;28;20021;-83
2021/08/07 00:17:48;;;;;;;0.75;0.60;;;18.10;88.60;;;;;;5014525;28;20039;-82
2021/08/07 00:20:14;;;;;;;1.10;0.75;;;18.00;88.70;;;;;;5016576;28;20082;-81
2021/08/07 00:22:39;;;;;;;2.70;0.50;;;18.10;88.70;;;;;;5016018;28;20443;-81
2021/08/07 00:25:05;;;;;;;0.75;0.45;;;18.00;88.60;;;;;;5016639;28;20030;-85
2021/08/07 00:27:31;;;;;;;1.42;0.60;;;18.00;88.80;;;;;;5016013;28;20101;-84
2021/08/07 00:29:57;;;;;;;4.60;0.57;;;18.00;88.90;;;;;;5015347;28;20057;-84
2021/08/07 00:32:22;;;;;;;1.10;0.70;;;17.90;89.00;;;;;;5016153;28;20034;-82
2021/08/07 00:34:48;;;;;;;1.13;0.40;;;17.90;89.20;;;;;;5016361;28;20072;-84
2021/08/07 00:37:14;;;;;;;1.17;0.55;;;17.90;89.20;;;;;;5015015;28;20127;-80
2021/08/07 00:39:39;;;;;;;2.05;0.40;;;17.90;89.30;;;;;;5015793;28;20026;-82
2021/08/07 00:42:05;;;;;;;1.83;0.50;;;17.90;89.50;;;;;;5016843;28;20049;-82
2021/08/07 00:44:31;;;;;;;3.50;0.60;;;17.90;89.60;;;;;;5015009;28;20030;-81
2021/08/07 00:46:57;;;;;;;1.77;0.50;;;17.80;89.70;;;;;;5015583;28;20036;-83
2021/08/07 00:49:22;;;;;;;0.90;0.77;;;17.80;89.90;;;;;;5015481;28;20072;-83
2021/08/07 00:51:49;;;;;;;1.23;0.60;;;17.80;89.90;;;;;;5015005;28;20022;-83
2021/08/07 00:54:15;;;;;;;0.82;0.50;;;17.80;89.90;;;;;;5015423;28;20040;-83
2021/08/07 00:56:41;;;;;;;0.90;0.50;;;17.70;90.00;;;;;;5015149;28;20513;-82
2021/08/07 00:59:06;;;;;;;1.38;0.52;;;17.70;90.00;;;;;;5015245;28;20026;-83
2021/08/07 01:01:41;;;;;;;1.17;0.47;;;17.70;90.00;;;;;;5012002;28;20117;-85
2021/08/07 01:04:12;;;;;;;2.75;0.70;;;17.80;90.00;;;;;;5015166;28;20459;-83
2021/08/07 01:07:10;;;;;;;1.10;0.43;;;17.70;90.00;;;;;;5015028;28;20098;-82
2021/08/07 01:09:48;;;;;;;1.83;0.60;;;17.60;90.10;;;;;;5006730;28;20125;-83
2021/08/07 01:12:35;;;;;;;3.83;0.70;;;17.60;90.10;;;;;;5015159;28;20025;-82
2021/08/07 01:15:01;;;;;;;1.55;0.52;;;17.60;90.10;;;;;;5031956;28;20450;-82
2021/08/07 01:17:29;;;;;;;1.88;0.50;;;17.70;90.10;;;;;;5015430;28;20447;-83
2021/08/07 01:20:07;;;;;;;0.88;0.40;;;17.70;90.00;;;;;;5015764;28;20113;-82
2021/08/07 01:22:56;;;;;;;1.05;0.50;;;17.70;90.00;;;;;;5015208;28;20025;-84
2021/08/07 01:25:23;;;;;;;1.63;0.38;;;17.70;90.00;;;;;;5015652;28;20026;-83
2021/08/07 01:27:49;;;;;;;2.42;0.55;;;17.70;89.80;;;;;;5015979;28;20030;-82
2021/08/07 01:30:17;;;;;;;1.23;0.50;;;17.60;89.70;;;;;;5016172;28;20439;-83
2021/08/07 01:32:44;;;;;;;2.90;0.50;;;17.60;89.80;;;;;;5014397;28;20466;-83
2021/08/07 01:35:11;;;;;;;1.90;0.50;;;17.70;89.90;;;;;;5031470;28;20451;-83
2021/08/07 01:37:39;;;;;;;3.83;0.80;;;17.70;89.90;;;;;;5015199;28;20053;-83
2021/08/07 01:40:05;;;;;;;2.60;0.82;;;17.70;89.90;;;;;;5014801;28;20022;-83
2021/08/07 01:42:31;;;;;;;1.15;0.50;;;17.70;90.00;;;;;;5014778;28;20021;-83
2021/08/07 01:44:56;;;;;;;0.95;0.60;;;17.70;90.00;;;;;;5016026;28;20108;-83
2021/08/07 01:47:23;;;;;;;1.00;0.50;;;17.70;90.10;;;;;;5014847;28;20141;-82
2021/08/07 01:50:14;;;;;;;6.38;1.52;;;17.80;90.30;;;;;;5014192;28;20029;-83
2021/08/07 01:52:45;;;;;;;0.90;0.60;;;17.80;90.30;;;;;;5030855;28;20053;-83
2021/08/07 01:55:16;;;;;;;;;;;17.70;90.30;;;;;;5015145;28;20025;-84
2021/08/07 01:57:49;;;;;;;1.00;0.40;;;17.70;90.50;;;;;;5015360;28;19902;-85
2021/08/07 02:00:15;;;;;;;1.48;0.60;;;17.70;90.30;;;;;;5014888;28;20033;-85
2021/08/07 02:02:41;;;;;;;3.10;0.50;;;17.80;90.20;;;;;;5014181;28;20026;-84
2021/08/07 02:05:08;;;;;;;2.60;0.52;;;17.70;90.30;;;;;;5014412;28;20034;-83
2021/08/07 02:07:34;;;;;;;1.25;0.40;;;17.70;90.40;;;;;;5014161;28;20094;-84
2021/08/07 02:10:01;;;;;;;1.50;0.80;;;17.70;90.40;;;;;;5014351;28;20064;-83
2021/08/07 02:12:27;;;;;;;1.85;0.60;;;17.80;90.30;;;;;;5015371;28;20022;-83
2021/08/07 02:14:54;;;;;;;2.08;0.63;;;17.80;90.30;;;;;;5014004;28;20026;-83
2021/08/07 02:17:21;;;;;;;1.60;0.50;;;17.80;90.40;;;;;;5015276;28;20061;-83
2021/08/07 02:19:47;;;;;;;2.75;0.47;;;17.80;90.40;;;;;;5014013;28;20021;-83
2021/08/07 02:22:13;;;;;;;1.73;0.50;;;17.70;90.40;;;;;;5014326;28;20022;-82
2021/08/07 02:24:39;;;;;;;1.20;0.80;;;17.70;90.40;;;;;;5013854;28;20037;-82
2021/08/07 02:27:05;;;;;;;2.00;0.57;;;17.80;90.30;;;;;;5014326;28;20447;-82
2021/08/07 02:29:33;;;;;;;2.25;0.50;;;17.80;90.30;;;;;;5014042;28;20466;-82
2021/08/07 02:32:00;;;;;;;1.02;0.70;;;17.90;90.20;;;;;;5014956;28;20024;-82
2021/08/07 02:34:28;;;;;;;2.78;0.65;;;17.80;90.30;;;;;;5013794;28;20033;-82
2021/08/07 02:36:55;;;;;;;2.13;0.70;;;17.80;90.30;;;;;;5013126;28;20049;-82
2021/08/07 02:39:21;;;;;;;2.30;0.77;;;17.80;90.20;;;;;;5013909;28;20022;-81
2021/08/07 02:41:47;;;;;;;0.90;0.50;;;17.80;90.20;;;;;;5014509;28;20022;-82
2021/08/07 02:44:15;;;;;;;3.83;0.95;;;17.70;90.30;;;;;;5013966;28;20021;-81
2021/08/07 02:46:41;;;;;;;1.38;0.77;;;17.70;90.50;;;;;;5014404;28;20459;-81
2021/08/07 02:49:07;;;;;;;1.30;0.60;;;17.70;90.60;;;;;;5013980;28;20478;-82
2021/08/07 02:51:34;;;;;;;1.00;0.57;;;17.70;90.70;;;;;;5013614;28;20026;-82
2021/08/07 02:54:01;;;;;;;3.38;0.70;;;17.60;90.80;;;;;;5013754;28;20045;-83
2021/08/07 02:56:26;;;;;;;2.80;0.98;;;17.70;90.70;;;;;;5013651;28;20108;-83
2021/08/07 02:58:52;;;;;;;1.85;0.75;;;17.70;90.70;;;;;;5012715;28;20474;-81
2021/08/07 03:01:18;;;;;;;3.45;1.00;;;17.70;90.80;;;;;;5013155;28;20026;-80
2021/08/07 03:03:43;;;;;;;2.08;0.90;;;17.70;90.80;;;;;;5012830;28;20125;-81
2021/08/07 03:06:09;;;;;;;2.13;0.70;;;17.70;90.90;;;;;;5013727;28;20029;-83
2021/08/07 03:08:35;;;;;;;1.80;0.75;;;17.60;91.00;;;;;;5013738;28;20096;-84
2021/08/07 03:11:01;;;;;;;0.98;0.80;;;17.70;91.10;;;;;;5013380;28;20518;-83
2021/08/07 03:13:26;;;;;;;1.00;0.63;;;17.60;91.10;;;;;;5014606;28;20076;-83
2021/08/07 03:15:52;;;;;;;4.22;1.05;;;17.60;91.10;;;;;;5013566;28;20030;-83
2021/08/07 03:18:18;;;;;;;1.50;0.63;;;17.60;91.20;;;;;;5013226;28;20454;-82
2021/08/07 03:20:43;;;;;;;1.00;0.63;;;17.60;91.10;;;;;;5029314;28;20029;-83
2021/08/07 03:23:09;;;;;;;1.00;0.60;;;17.60;91.40;;;;;;5013356;28;20022;-83
2021/08/07 03:25:35;;;;;;;1.88;0.75;;;17.60;91.40;;;;;;5013041;28;20056;-86
2021/08/07 03:28:02;;;;;;;1.85;0.63;;;17.60;91.60;;;;;;5013434;28;20075;-83
2021/08/07 03:30:28;;;;;;;1.48;0.75;;;17.60;91.60;;;;;;5013308;28;20051;-83
2021/08/07 03:32:54;;;;;;;4.03;0.80;;;17.70;91.50;;;;;;5013014;28;20116;-82
2021/08/07 03:35:21;;;;;;;1.60;0.43;;;17.70;91.30;;;;;;5013039;28;20069;-82
2021/08/07 03:37:47;;;;;;;1.85;0.60;;;17.70;91.30;;;;;;5013959;28;20122;-82
2021/08/07 03:40:13;;;;;;;1.75;0.70;;;17.80;91.30;;;;;;5013367;28;20034;-82
2021/08/07 03:42:40;;;;;;;1.58;0.70;;;17.70;91.40;;;;;;5012626;28;20033;-83
2021/08/07 03:45:09;;;;;;;2.10;0.80;;;17.70;91.70;;;;;;5013447;28;20037;-82
2021/08/07 03:47:50;;;;;;;1.85;0.77;;;17.70;91.60;;;;;;5013270;28;20022;-82
2021/08/07 03:50:17;;;;;;;0.98;0.63;;;17.70;91.40;;;;;;5013134;28;20022;-82
2021/08/07 03:52:42;;;;;;;3.28;0.80;;;17.70;91.70;;;;;;5012641;28;20041;-82
2021/08/07 03:55:09;;;;;;;3.58;0.82;;;17.70;91.60;;;;;;5014022;28;20029;-83
2021/08/07 03:57:55;;;;;;;2.40;0.90;;;17.70;91.60;;;;;;5013948;28;20053;-81
2021/08/07 04:00:23;;;;;;;1.55;0.95;;;17.70;91.60;;;;;;5014137;28;20021;-81
2021/08/07 04:02:49;;;;;;;0.70;0.55;;;17.70;91.60;;;;;;5012414;28;20022;-81
2021/08/07 04:05:14;;;;;;;2.70;0.68;;;17.60;91.80;;;;;;5012597;28;20104;-82
2021/08/07 04:07:40;;;;;;;2.28;0.70;;;17.60;91.90;;;;;;5012539;28;20402;-82
2021/08/07 04:10:07;;;;;;;2.97;0.60;;;17.60;91.90;;;;;;5012687;28;20105;-82
2021/08/07 04:12:32;;;;;;;4.03;0.73;;;17.60;91.90;;;;;;5012841;28;20057;-81
2021/08/07 04:14:58;;;;;;;1.20;0.63;;;17.60;91.90;;;;;;5012262;28;20348;-82
2021/08/07 04:17:23;;;;;;;1.38;0.60;;;17.60;91.90;;;;;;5012570;28;20021;-81
2021/08/07 04:19:50;;;;;;;4.43;1.25;;;17.60;91.80;;;;;;5012164;28;20021;-81
2021/08/07 04:22:16;;;;;;;2.95;1.00;;;17.60;91.70;;;;;;5012692;28;20022;-82
2021/08/07 04:24:42;;;;;;;0.82;0.63;;;17.60;91.70;;;;;;5012148;28;20030;-81
2021/08/07 04:27:07;;;;;;;1.00;0.75;;;17.50;91.80;;;;;;5012671;28;20057;-82
2021/08/07 04:29:33;;;;;;;3.28;0.63;;;17.60;91.90;;;;;;5012621;28;20478;-81
2021/08/07 04:31:58;;;;;;;6.15;1.48;;;17.60;91.90;;;;;;5011944;28;20211;-81
2021/08/07 04:34:24;;;;;;;2.38;0.73;;;17.60;91.90;;;;;;5012995;28;20141;-85
2021/08/07 04:36:50;;;;;;;1.40;0.88;;;17.60;92.00;;;;;;5013929;28;20546;-83
2021/08/07 04:39:17;;;;;;;2.97;0.90;;;17.60;92.00;;;;;;5016460;28;20355;-83
2021/08/07 04:41:44;;;;;;;3.45;0.85;;;17.60;92.00;;;;;;5015446;28;20026;-84
2021/08/07 04:44:09;;;;;;;1.13;0.82;;;17.60;92.10;;;;;;5015894;28;20024;-82
2021/08/07 04:46:35;;;;;;;2.35;0.90;;;17.60;92.00;;;;;;5016849;28;20022;-82
2021/08/07 04:49:00;;;;;;;1.38;0.80;;;17.60;91.80;;;;;;5015414;28;20022;-82
2021/08/07 04:51:27;;;;;;;2.90;0.65;;;17.60;91.70;;;;;;5015732;28;20022;-81
2021/08/07 04:53:52;;;;;;;2.63;0.90;;;17.60;91.60;;;;;;5015208;28;20026;-82
2021/08/07 04:56:18;;;;;;;2.00;0.80;;;17.60;91.70;;;;;;5016611;28;20080;-81
2021/08/07 04:58:44;;;;;;;1.73;0.90;;;17.70;91.80;;;;;;5015382;28;20463;-83
2021/08/07 05:01:09;;;;;;;5.20;0.93;;;17.60;91.90;;;;;;5015614;28;20336;-82
2021/08/07 05:03:35;;;;;;;1.75;0.80;;;17.70;91.90;;;;;;5015502;28;20034;-82
2021/08/07 05:06:01;;;;;;;2.15;0.65;;;17.70;91.90;;;;;;5015094;28;20114;-82
2021/08/07 05:08:26;;;;;;;1.13;0.77;;;17.70;91.90;;;;;;5015671;28;20029;-83
2021/08/07 05:10:53;;;;;;;1.88;0.65;;;17.80;91.90;;;;;;5015030;28;20113;-83
2021/08/07 05:13:18;;;;;;;1.48;0.80;;;17.80;91.80;;;;;;5015380;28;20022;-83
2021/08/07 05:15:44;;;;;;;3.05;0.70;;;17.80;91.60;;;;;;5015868;28;20041;-83
2021/08/07 05:18:10;;;;;;;3.10;1.00;;;17.80;91.50;;;;;;5015221;28;20520;-80
2021/08/07 05:20:36;;;;;;;2.60;0.80;;;17.80;91.50;;;;;;5015237;28;20057;-81
2021/08/07 05:23:02;;;;;;;2.05;0.75;;;17.90;91.60;;;;;;5014622;28;20022;-81
2021/08/07 05:25:27;;;;;;;2.33;0.77;;;17.90;91.50;;;;;;5014941;28;20099;-81
2021/08/07 05:27:53;;;;;;;1.58;1.10;;;17.90;91.40;;;;;;5014723;28;20127;-82
2021/08/07 05:30:18;;;;;;;1.20;0.70;;;17.90;91.50;;;;;;5016269;28;20018;-81
2021/08/07 05:32:44;;;;;;;1.27;0.80;;;18.00;91.40;;;;;;5014594;28;20109;-83
2021/08/07 05:35:10;;;;;;;1.27;0.63;;;18.00;91.30;;;;;;5014885;28;20026;-81
2021/08/07 05:37:40;;;;;;;3.72;1.05;;;18.10;91.00;;;;;;5014633;28;20052;-81
2021/08/07 05:40:08;;;;;;;0.90;0.60;;;18.10;91.00;;;;;;5013987;28;20076;-81
2021/08/07 05:42:33;;;;;;;3.30;0.73;;;18.10;91.00;;;;;;5015857;28;20108;-82
2021/08/07 05:44:59;;;;;;;1.65;0.90;;;18.10;91.10;;;;;;5014271;28;20033;-82
2021/08/07 05:47:24;;;;;;;3.50;0.77;;;18.20;91.10;;;;;;5014390;28;20463;-82
2021/08/07 05:49:50;;;;;;;1.85;0.82;;;18.20;90.90;;;;;;5014237;28;20071;-82
2021/08/07 05:52:16;;;;;;;2.22;0.80;;;18.30;90.70;;;;;;5014822;28;20022;-81
2021/08/07 05:54:41;;;;;;;2.90;0.93;;;18.30;90.70;;;;;;5014748;28;20459;-81
2021/08/07 05:57:07;;;;;;;4.00;0.88;;;18.40;90.70;;;;;;5014067;28;20156;-81
2021/08/07 05:59:32;;;;;;;1.90;0.98;;;18.30;90.70;;;;;;5014456;28;20361;-82
2021/08/07 06:02:05;;;;;;;2.78;0.75;;;18.40;90.60;;;;;;5014275;28;20550;-83
2021/08/07 06:04:31;;;;;;;1.83;1.00;;;18.40;90.60;;;;;;5015563;28;20091;-82
2021/08/07 06:06:56;;;;;;;3.95;0.95;;;18.50;90.10;;;;;;5013995;28;20120;-82
2021/08/07 06:09:22;;;;;;;5.65;1.20;;;18.50;89.80;;;;;;5014180;28;20440;-82
2021/08/07 06:11:47;;;;;;;6.35;1.20;;;18.60;88.70;;;;;;5013849;28;20029;-82
2021/08/07 06:14:13;;;;;;;3.75;1.00;;;18.60;88.30;;;;;;5014265;28;20121;-82
2021/08/07 06:16:39;;;;;;;6.57;1.08;;;18.60;88.00;;;;;;5014410;28;20036;-81
2021/08/07 06:19:04;;;;;;;6.80;1.48;;;18.70;87.50;;;;;;5013530;28;20117;-82
2021/08/07 06:21:30;;;;;;;5.05;1.20;;;18.70;87.80;;;;;;5014052;28;20056;-80
2021/08/07 06:23:58;;;;;;;4.95;1.00;;;18.80;87.20;;;;;;5014438;28;20068;-81
2021/08/07 06:26:25;;;;;;;6.80;2.83;;;18.80;87.00;;;;;;5013918;28;20070;-81
2021/08/07 06:28:50;;;;;;;3.72;2.00;;;18.80;86.80;;;;;;5013572;28;20033;-81
2021/08/07 06:31:16;;;;;;;4.80;1.50;;;18.80;87.00;;;;;;5015200;28;20387;-82
2021/08/07 06:33:42;;;;;;;5.22;1.73;;;18.80;87.10;;;;;;5013657;28;20030;-83
2021/08/07 06:36:08;;;;;;;5.15;1.40;;;18.80;87.20;;;;;;5013313;28;20041;-83
2021/08/07 06:38:34;;;;;;;6.13;1.00;;;18.80;87.80;;;;;;5014070;28;20026;-84
2021/08/07 06:41:00;;;;;;;5.85;0.90;;;18.90;87.90;;;;;;5014454;28;20080;-85
2021/08/07 06:43:25;;;;;;;4.65;1.17;;;18.90;87.10;;;;;;5014026;28;20022;-84
2021/08/07 06:45:51;;;;;;;3.40;0.80;;;19.00;87.00;;;;;;5013387;28;20379;-85
2021/08/07 06:48:17;;;;;;;1.25;0.88;;;19.00;86.50;;;;;;5014041;28;20467;-84
2021/08/07 06:50:43;;;;;;;3.38;0.98;;;19.10;86.90;;;;;;5013813;28;20467;-84
2021/08/07 06:53:08;;;;;;;2.28;0.70;;;19.10;86.10;;;;;;5013105;28;20038;-84
2021/08/07 06:55:34;;;;;;;0.63;0.43;;;19.10;85.70;;;;;;5013833;28;20391;-84
2021/08/07 06:58:00;;;;;;;2.75;0.73;;;19.10;85.90;;;;;;5013088;28;20387;-84
2021/08/07 07:00:25;;;;;;;2.90;0.68;;;19.20;85.60;;;;;;5014050;28;20030;-84
2021/08/07 07:02:51;;;;;;;4.80;0.80;;;19.30;84.50;;;;;;5012944;28;20033;-84
2021/08/07 07:05:16;;;;;;;1.90;0.73;;;19.40;84.30;;;;;;5013607;28;20046;-84
2021/08/07 07:07:48;;;;;;;2.10;0.60;;;19.50;84.00;;;;;;5013660;28;20034;-84
2021/08/07 07:10:15;;;;;;;3.05;0.70;;;19.50;84.00;;;;;;5013701;28;20053;-81
2021/08/07 07:12:41;;;;;;;2.60;0.80;;;19.60;84.30;;;;;;5013605;28;20105;-82
2021/08/07 07:15:08;;;;;;;2.28;0.57;;;19.60;84.10;;;;;;5012908;28;20120;-81
2021/08/07 07:17:35;;;;;;;2.10;0.85;;;19.70;83.20;;;;;;5013386;28;20030;-81
2021/08/07 07:20:00;;;;;;;1.52;0.70;;;19.70;82.90;;;;;;5012668;28;20117;-81
2021/08/07 07:22:27;;;;;;;3.92;0.60;;;19.70;82.90;;;;;;5013146;28;20116;-81
2021/08/07 07:24:53;;;;;;;1.65;0.55;;;19.80;82.80;;;;;;5013812;28;20030;-83
2021/08/07 07:27:18;;;;;;;2.97;0.60;;;19.90;82.90;;;;;;5013129;28;20038;-83
2021/08/07 07:29:44;;;;;;;2.58;0.85;;;19.90;83.10;;;;;;5013260;28;20026;-83
2021/08/07 07:32:10;;;;;;;2.08;0.60;;;19.90;82.00;;;;;;5012809;28;20045;-84
2021/08/07 07:34:40;;;;;;;3.25;1.00;;;19.90;81.20;;;;;;5013064;28;20087;-83
2021/08/07 07:37:06;;;;;;;1.35;0.73;;;19.90;80.90;;;;;;5012032;28;20050;-84
2021/08/07 07:39:37;;;;;;;1.02;0.70;;;20.00;81.10;;;;;;5012465;28;20068;-82
2021/08/07 07:42:03;;;;;;;0.75;0.50;;;20.00;81.30;;;;;;5012499;28;20033;-81
2021/08/07 07:44:29;;;;;;;3.20;0.63;;;20.00;81.30;;;;;;5012729;28;20030;-81
2021/08/07 07:46:55;;;;;;;2.55;0.75;;;20.00;81.40;;;;;;5012348;28;20025;-82
2021/08/07 07:49:20;;;;;;;2.03;0.55;;;20.00;81.70;;;;;;5013163;28;20029;-82
2021/08/07 07:51:46;;;;;;;4.53;0.77;;;20.00;82.30;;;;;;5013067;28;20030;-81
2021/08/07 07:54:11;;;;;;;0.90;0.40;;;20.10;81.80;;;;;;5012080;28;20030;-81
2021/08/07 07:56:37;;;;;;;1.77;0.90;;;20.10;82.10;;;;;;5012392;28;20057;-81
2021/08/07 07:59:03;;;;;;;3.92;0.80;;;20.20;81.30;;;;;;5012580;28;20526;-82
2021/08/07 08:01:28;;;;;;;2.53;0.43;;;20.30;80.90;;;;;;5012746;28;20034;-81
2021/08/07 08:03:54;;;;;;;3.33;0.70;;;20.40;79.80;;;;;;5012143;28;20034;-82
2021/08/07 08:06:19;;;;;;;1.67;0.52;;;20.50;78.90;;;;;;5012232;28;20541;-81
2021/08/07 08:08:45;;;;;;;2.63;0.77;;;20.60;78.40;;;;;;5012490;28;20057;-81
2021/08/07 08:11:11;;;;;;;1.13;0.60;;;20.60;78.30;;;;;;5014306;28;20060;-81
2021/08/07 08:13:37;;;;;;;4.45;1.02;;;20.60;78.80;;;;;;5016968;28;20029;-80
2021/08/07 08:16:04;;;;;;;4.63;0.70;;;20.70;78.30;;;;;;5017148;28;20463;-81
2021/08/07 08:18:29;;;;;;;1.30;0.68;;;20.80;77.90;;;;;;5016113;28;20352;-81
2021/08/07 08:20:55;;;;;;;2.15;0.63;;;20.80;77.70;;;;;;5015816;28;20079;-81
2021/08/07 08:23:21;;;;;;;3.45;0.70;;;20.80;76.80;;;;;;5016313;28;20423;-81
2021/08/07 08:25:48;;;;;;;2.72;0.60;;;20.80;77.20;;;;;;5016269;28;20041;-82
2021/08/07 08:28:13;;;;;;;1.48;0.55;;;20.80;77.90;;;;;;5016486;28;20034;-81
2021/08/07 08:30:39;;;;;;;2.63;0.60;;;20.90;77.40;;;;;;5015729;28;20056;-82
2021/08/07 08:33:05;;;;;;;3.00;0.80;;;20.90;77.90;;;;;;5014684;28;20034;-83
2021/08/07 08:35:31;;;;;;;3.05;0.77;;;20.90;78.30;;;;;;5016940;28;20065;-83
2021/08/07 08:37:57;;;;;;;4.38;1.20;;;20.90;78.70;;;;;;5031539;28;20046;-84
2021/08/07 08:40:24;;;;;;;3.33;0.60;;;20.90;79.10;;;;;;5015999;28;20386;-83
2021/08/07 08:42:51;;;;;;;1.88;0.70;;;20.90;79.80;;;;;;5015659;28;20030;-81
2021/08/07 08:45:17;;;;;;;3.72;0.82;;;20.90;80.40;;;;;;5014538;28;20042;-80
2021/08/07 08:47:43;;;;;;;2.83;0.85;;;20.80;80.90;;;;;;5015302;28;20503;-81
2021/08/07 08:50:11;;;;;;;3.70;0.90;;;20.70;81.30;;;;;;5014268;28;20391;-83
2021/08/07 08:52:41;;;;;;;2.83;0.80;;;20.70;81.70;;;;;;5013023;28;20022;-82
2021/08/07 08:55:09;;;;;;;2.22;0.85;;;20.60;82.30;;;;;;5014934;28;20125;-81
2021/08/07 08:57:35;;;;;;;2.80;0.88;;;20.50;82.50;;;;;;5016213;28;20101;-88
2021/08/07 09:00:01;;;;;;;2.53;0.95;;;20.50;82.40;;;;;;5012750;28;20096;-87
2021/08/07 09:02:27;;;;;;;1.52;0.75;;;20.50;82.60;;;;;;5014190;28;20034;-82
2021/08/07 09:04:53;;;;;;;1.35;0.70;;;20.50;83.10;;;;;;5014863;28;20040;-82
2021/08/07 09:07:19;;;;;;;2.53;0.77;;;20.40;83.00;;;;;;5014454;28;20087;-86
2021/08/07 09:09:55;;;;;;;4.03;0.90;;;20.50;82.70;;;;;;5014613;28;20030;-86
2021/08/07 09:12:46;;;;;;;3.85;0.85;;;20.60;81.40;;;;;;5014842;28;20037;-83
2021/08/07 09:15:24;;;;;;;;;;;20.80;80.40;;;;;;5013573;28;20022;-81
2021/08/07 09:17:50;;;;;;;2.25;0.70;;;21.00;79.50;;;;;;5015312;28;19906;-82
2021/08/07 09:20:27;;;;;;;3.00;0.70;;;21.20;78.80;;;;;;5017138;28;20030;-83
2021/08/07 09:22:54;;;;;;;2.67;0.73;;;21.30;77.80;;;;;;5020792;28;20378;-83
2021/08/07 09:25:26;;;;;;;2.03;0.90;;;21.40;76.50;;;;;;5030486;28;20080;-84
2021/08/07 09:27:52;;;;;;;2.60;0.80;;;21.50;76.80;;;;;;5015453;28;20084;-82
2021/08/07 09:30:18;;;;;;;2.67;0.80;;;21.60;76.70;;;;;;5009457;28;20030;-83
2021/08/07 09:32:46;;;;;;;2.88;0.90;;;21.70;76.10;;;;;;5013992;28;20025;-83
2021/08/07 09:35:15;;;;;;;2.58;0.63;;;21.70;75.90;;;;;;5013254;28;20033;-84
2021/08/07 09:37:41;;;;;;;4.55;1.00;;;21.80;74.60;;;;;;5013706;28;20046;-84
2021/08/07 09:40:09;;;;;;;3.22;0.85;;;21.90;74.60;;;;;;5013438;28;20026;-84
2021/08/07 09:42:52;;;;;;;2.17;0.55;;;21.90;73.60;;;;;;5013707;28;20068;-84
2021/08/07 09:45:25;;;;;;;2.35;0.60;;;21.90;72.90;;;;;;5011960;28;20030;-82
2021/08/07 09:48:00;;;;;;;1.50;0.60;;;21.90;74.00;;;;;;5001627;28;20130;-82
2021/08/07 09:50:28;;;;;;;1.80;0.80;;;21.90;74.60;;;;;;5013421;28;20026;-80
2021/08/07 09:52:55;;;;;;;1.60;0.60;;;21.90;75.40;;;;;;5014279;28;20027;-81
2021/08/07 09:55:21;;;;;;;3.15;0.73;;;21.80;74.00;;;;;;5013531;28;20083;-81
2021/08/07 09:58:07;;;;;;;3.42;0.80;;;21.80;74.60;;;;;;5012759;28;20030;-82
2021/08/07 10:00:37;;;;;;;1.83;0.77;;;21.80;74.80;;;;;;5012054;28;20033;-81
2021/08/07 10:03:23;;;;;;;2.35;0.70;;;21.80;75.40;;;;;;4999403;28;20463;-82
2021/08/07 10:05:50;;;;;;;1.48;0.90;;;21.90;75.60;;;;;;4993857;28;20049;-84
2021/08/07 10:08:17;;;;;;;1.65;0.63;;;21.90;75.90;;;;;;4993659;28;20775;-82
2021/08/07 10:10:45;;;;;;;2.05;0.80;;;21.90;74.80;;;;;;4994086;28;20027;-83
2021/08/07 10:13:11;;;;;;;1.10;0.63;;;22.00;74.30;;;;;;4994164;28;20380;-81
2021/08/07 10:15:39;;;;;;;1.60;0.68;;;22.00;74.40;;;;;;4995634;28;20030;-82
2021/08/07 10:18:05;;;;;;;2.22;0.70;;;21.90;74.30;;;;;;4997764;28;20464;-84
2021/08/07 10:20:34;;;;;;;5.22;1.02;;;21.90;73.70;;;;;;5015239;28;20034;-89
2021/08/07 10:23:00;;;;;;;1.95;0.88;;;22.00;74.30;;;;;;5013444;28;20091;-81
2021/08/07 10:25:26;;;;;;;2.90;0.70;;;21.90;74.00;;;;;;5013628;28;20037;-80
2021/08/07 10:27:57;;;;;;;1.92;0.68;;;22.00;74.10;;;;;;5013755;28;20025;-82
2021/08/07 10:30:23;;;;;;;3.95;0.75;;;22.00;75.10;;;;;;5013908;28;20041;-83
2021/08/07 10:32:50;;;;;;;1.80;0.70;;;22.00;74.90;;;;;;5014247;28;20491;-82
2021/08/07 10:35:16;;;;;;;4.63;0.85;;;22.00;75.00;;;;;;5012067;28;20088;-82
2021/08/07 10:37:42;;;;;;;3.25;0.80;;;22.00;75.70;;;;;;5013380;28;20060;-81
2021/08/07 10:40:11;;;;;;;4.20;1.10;;;22.00;75.80;;;;;;5012798;28;20120;-82
2021/08/07 10:42:37;;;;;;;2.08;0.50;;;22.00;75.90;;;;;;5014805;28;20108;-82
2021/08/07 10:45:07;;;;;;;2.42;0.70;;;22.10;75.70;;;;;;5013013;28;20570;-81
2021/08/07 10:47:44;;;;;;;0.77;0.60;;;22.10;75.50;;;;;;5012882;28;20040;-80
2021/08/07 10:50:24;;;;;;;3.35;1.05;;;22.10;74.80;;;;;;5013582;28;20026;-82
2021/08/07 10:52:51;;;;;;;1.70;0.70;;;22.10;74.90;;;;;;5013189;28;20485;-80
2021/08/07 10:55:55;;;;;;;2.95;0.73;;;22.00;74.50;;;;;;5012577;28;20271;-82
2021/08/07 10:58:42;;;;;;;2.42;0.70;;;21.90;74.40;;;;;;5009233;28;20111;-83
2021/08/07 11:01:24;;;;;;;2.28;0.63;;;21.90;75.10;;;;;;5028382;28;20030;-84
2021/08/07 11:04:01;;;;;;;2.47;0.88;;;21.90;75.30;;;;;;5012585;28;20582;-82
2021/08/07 11:06:42;;;;;;;5.03;0.70;;;21.90;75.50;;;;;;5012987;28;20038;-84
2021/08/07 11:09:14;;;;;;;1.55;0.70;;;21.90;75.70;;;;;;5012488;28;20423;-82
2021/08/07 11:11:40;;;;;;;2.97;0.85;;;21.90;76.60;;;;;;5012598;28;20022;-82
2021/08/07 11:14:21;;;;;;;2.05;0.60;;;21.80;76.70;;;;;;5012447;28;20088;-81
2021/08/07 11:17:05;;;;;;;4.30;1.05;;;21.80;76.70;;;;;;5012782;28;20120;-81
2021/08/07 11:20:08;;;;;;;3.03;0.90;;;21.80;76.10;;;;;;5028050;28;20032;-82
2021/08/07 11:22:44;;;;;;;3.63;0.93;;;21.80;76.50;;;;;;5011987;28;20028;-82
2021/08/07 11:25:18;;;;;;;6.32;1.15;;;21.70;76.80;;;;;;5011980;28;20526;-81
2021/08/07 11:30:15;;;;;;;1.48;0.75;;;21.70;77.50;;;;;;5013434;28;20034;-81
2021/08/07 11:32:41;;;;;;;3.13;0.75;;;21.70;77.70;;;;;;5012353;28;20112;-83
2021/08/07 11:35:07;;;;;;;2.35;0.90;;;21.60;78.10;;;;;;5029144;28;20038;-85
2021/08/07 11:37:33;;;;;;;1.65;0.80;;;21.60;78.60;;;;;;5012695;28;20541;-81
2021/08/07 11:40:08;;;;;;;2.15;0.98;;;21.60;78.70;;;;;;5013004;28;20052;-79
2021/08/07 11:42:40;;;;;;;1.05;0.60;;;21.60;79.00;;;;;;5029680;28;20034;-79
2021/08/07 11:45:07;;;;;;;4.25;1.23;;;21.50;79.20;;;;;;5012383;28;20522;-80
2021/08/07 11:47:41;;;;;;;3.53;0.95;;;21.50;79.90;;;;;;5016779;28;20030;-81
2021/08/07 11:50:07;;;;;;;2.45;0.80;;;21.40;80.10;;;;;;5032934;28;20029;-81
2021/08/07 11:52:34;;;;;;;3.15;1.02;;;21.30;80.70;;;;;;5016643;28;20053;-80
2021/08/07 11:55:01;;;;;;;2.15;1.00;;;21.30;82.30;;;;;;5016937;28;20103;-81
2021/08/07 11:57:27;;;;;;;2.20;0.80;;;21.20;82.70;;;;;;5016289;28;20028;-82
2021/08/07 11:59:52;;;;;;;2.90;1.08;;;21.00;83.80;;;;;;5017816;28;20029;-80
2021/08/07 12:02:18;;;;;;;3.25;0.80;;;21.00;85.20;;;;;;5016344;28;20057;-81
2021/08/07 12:04:44;;;;;;;2.80;0.85;;;20.90;85.70;;;;;;5015848;28;20395;-81
2021/08/07 12:07:11;;;;;;;5.10;0.85;;;20.80;86.90;;;;;;5016135;28;20029;-81
2021/08/07 12:09:37;;;;;;;2.63;1.17;;;20.60;85.60;;;;;;5017444;28;20032;-81
2021/08/07 12:12:03;;;;;;;1.08;0.70;;;20.30;86.20;;;;;;5016795;28;20036;-80
2021/08/07 12:14:29;;;;;;;2.30;0.80;;;20.10;87.30;;;;;;5017149;28;20040;-81
2021/08/07 12:17:05;;;;;;;1.58;0.68;;;20.00;88.10;;;;;;5016055;28;20026;-82
2021/08/07 12:19:30;;;;;;;1.45;0.70;;;19.90;88.50;;;;;;5016014;28;20520;-82
2021/08/07 12:22:04;;;;;;;1.38;0.90;;;19.90;88.80;;;;;;5016121;28;20026;-83
2021/08/07 12:24:30;;;;;;;3.08;1.00;;;19.90;89.50;;;;;;5017131;28;20474;-82
2021/08/07 12:26:58;;;;;;;2.35;0.88;;;19.90;89.80;;;;;;5016210;28;20056;-79
2021/08/07 12:29:26;;;;;;;1.33;0.80;;;19.80;90.00;;;;;;5015766;28;20034;-80
2021/08/07 12:32:02;;;;;;;4.05;1.02;;;19.80;90.30;;;;;;5017215;28;20034;-79
2021/08/07 12:34:33;;;;;;;1.75;0.80;;;19.80;90.60;;;;;;5015669;28;20032;-80
2021/08/07 12:37:12;;;;;;;2.33;0.65;;;19.80;90.50;;;;;;5015702;28;20057;-80
2021/08/07 12:39:38;;;;;;;1.20;0.73;;;19.80;90.50;;;;;;5016874;28;20035;-80
2021/08/07 12:42:05;;;;;;;1.90;0.88;;;19.70;90.40;;;;;;5015652;28;20018;-80
2021/08/07 12:44:31;;;;;;;1.42;0.70;;;19.60;90.60;;;;;;5015628;28;20172;-81
2021/08/07 12:46:57;;;;;;;4.30;0.68;;;19.60;90.70;;;;;;5015588;28;20554;-81
2021/08/07 12:49:38;;;;;;;3.95;1.02;;;19.60;90.50;;;;;;5014988;28;20372;-80
2021/08/07 12:52:05;;;;;;;2.58;0.95;;;19.60;90.80;;;;;;5015377;28;20030;-80
2021/08/07 12:54:31;;;;;;;2.55;1.10;;;19.50;91.10;;;;;;5016331;28;20050;-80